createdAt,value
2023-02-03T00:00:08.603Z,62.80
2023-02-03T00:02:39.633Z,78.23
2023-02-03T00:05:08.549Z,66.00
2023-02-03T00:07:39.195Z,75.38
2023-02-03T00:10:08.322Z,67.80
2023-02-03T00:12:36.621Z,74.88
2023-02-03T00:15:05.273Z,68.05
2023-02-03T00:17:33.382Z,78.03
2023-02-03T00:20:01.566Z,75.07
2023-02-03T00:22:29.742Z,79.28
2023-02-03T00:24:57.846Z,77.72
2023-02-03T00:27:26.155Z,74.80
2023-02-03T00:29:54.229Z,81.60
2023-02-03T00:32:22.528Z,76.90
2023-02-03T00:34:50.767Z,80.38
2023-02-03T00:37:18.901Z,87.95
2023-02-03T00:39:47.363Z,79.53
2023-02-03T00:42:15.756Z,80.43
2023-02-03T00:44:45.285Z,75.03
2023-02-03T00:47:13.398Z,84.28
2023-02-03T00:49:42.102Z,83.35
2023-02-03T00:52:10.250Z,93.00
2023-02-03T00:54:39.677Z,87.18
2023-02-03T00:57:07.828Z,97.88
2023-02-03T00:59:36.071Z,95.13
2023-02-03T01:02:04.304Z,102.05
2023-02-03T01:04:32.426Z,106.45
2023-02-03T01:07:03.237Z,100.65
2023-02-03T01:09:34.996Z,105.93
2023-02-03T01:12:03.641Z,112.03
2023-02-03T01:14:32.075Z,112.95
2023-02-03T01:17:01.280Z,112.72
2023-02-03T01:19:29.438Z,121.18
2023-02-03T01:21:57.592Z,121.75
2023-02-03T01:24:25.729Z,113.75
2023-02-03T01:26:53.936Z,118.78
2023-02-03T01:29:22.243Z,120.60
2023-02-03T01:31:51.405Z,123.47
2023-02-03T01:34:19.819Z,109.45
2023-02-03T01:36:48.851Z,107.65
2023-02-03T01:39:17.284Z,112.45
2023-02-03T01:41:47.127Z,108.35
2023-02-03T01:44:34.971Z,109.45
2023-02-03T01:47:06.032Z,115.63
2023-02-03T01:49:38.973Z,120.63
2023-02-03T01:52:08.679Z,111.78
2023-02-03T01:54:42.420Z,110.22
2023-02-03T01:57:36.943Z,101.68
2023-02-03T02:00:09.910Z,116.30
2023-02-03T02:02:47.987Z,109.95
2023-02-03T02:05:46.333Z,116.55
2023-02-03T02:08:16.938Z,129.88
2023-02-03T02:10:46.097Z,120.90
2023-02-03T02:13:17.156Z,118.80
2023-02-03T02:16:12.033Z,114.45
2023-02-03T02:18:47.661Z,126.70
2023-02-03T02:21:27.940Z,134.45
2023-02-03T02:24:33.663Z,135.00
2023-02-03T02:27:40.656Z,132.95
2023-02-03T02:30:29.952Z,132.18
2023-02-03T02:33:53.689Z,130.43
2023-02-03T02:36:43.127Z,128.30
2023-02-03T02:39:27.222Z,122.93
2023-02-03T02:42:26.871Z,130.32
2023-02-03T02:45:15.513Z,134.48
2023-02-03T02:47:45.142Z,131.27
2023-02-03T02:50:34.467Z,131.55
2023-02-03T02:53:05.448Z,140.15
2023-02-03T02:55:37.361Z,136.25
2023-02-03T02:58:13.106Z,135.68
2023-02-03T03:00:42.963Z,136.40
2023-02-03T03:03:20.982Z,127.55
2023-02-03T03:06:07.053Z,127.10
2023-02-03T03:08:50.592Z,131.43
2023-02-03T03:11:19.303Z,134.30
2023-02-03T03:13:55.288Z,129.68
2023-02-03T03:16:29.727Z,144.75
2023-02-03T03:19:03.051Z,133.10
2023-02-03T03:21:40.609Z,150.27
2023-02-03T03:24:14.315Z,154.13
2023-02-03T03:26:46.365Z,146.32
2023-02-03T03:29:26.369Z,163.07
2023-02-03T03:31:54.600Z,160.95
2023-02-03T03:34:22.801Z,168.48
2023-02-03T03:37:11.537Z,174.63
2023-02-03T03:39:49.117Z,160.65
2023-02-03T03:42:36.341Z,168.98
2023-02-03T03:45:12.599Z,155.18
2023-02-03T03:47:58.788Z,159.45
2023-02-03T03:50:32.433Z,158.82
2023-02-03T03:53:03.131Z,160.75
2023-02-03T03:55:37.028Z,164.98
2023-02-03T03:58:16.195Z,174.32
2023-02-03T04:00:46.150Z,175.15
2023-02-03T04:03:28.732Z,172.90
2023-02-03T04:05:56.880Z,167.57
2023-02-03T04:08:25.014Z,167.52
2023-02-03T04:10:53.178Z,158.80
2023-02-03T04:13:21.339Z,166.38
2023-02-03T04:15:49.633Z,175.25
2023-02-03T04:18:18.080Z,167.82
2023-02-03T04:20:46.210Z,154.38
2023-02-03T04:23:14.383Z,167.88
2023-02-03T04:25:45.398Z,166.23
2023-02-03T04:28:13.636Z,167.95
2023-02-03T04:30:41.838Z,162.52
2023-02-03T04:33:09.943Z,173.20
2023-02-03T04:35:38.082Z,161.63
2023-02-03T04:38:06.249Z,144.20
2023-02-03T04:40:35.161Z,144.10
2023-02-03T04:43:07.732Z,148.75
2023-02-03T04:45:35.962Z,166.45
2023-02-03T04:48:07.424Z,159.02
2023-02-03T04:50:35.529Z,169.48
2023-02-03T04:53:03.643Z,180.98
2023-02-03T04:55:31.771Z,187.75
2023-02-03T04:58:01.277Z,185.63
2023-02-03T05:00:30.072Z,190.75
2023-02-03T05:02:58.613Z,196.00
2023-02-03T05:05:26.877Z,201.85
2023-02-03T05:07:54.966Z,198.18
2023-02-03T05:10:23.102Z,198.10
2023-02-03T05:12:51.213Z,186.00
2023-02-03T05:15:21.945Z,185.27
2023-02-03T05:17:53.383Z,192.98
2023-02-03T05:20:21.995Z,183.30
2023-02-03T05:22:50.525Z,172.85
2023-02-03T05:25:18.691Z,171.95
2023-02-03T05:27:46.903Z,170.32
2023-02-03T05:30:15.136Z,176.85
2023-02-03T05:32:43.269Z,177.65
2023-02-03T05:35:11.351Z,153.88
2023-02-03T05:37:39.485Z,141.48
2023-02-03T05:40:27.268Z,152.55
2023-02-03T05:42:55.573Z,150.23
2023-02-03T05:45:23.888Z,154.77
2023-02-03T05:47:54.434Z,156.35
2023-02-03T05:50:22.927Z,156.20
2023-02-03T05:52:51.910Z,149.88
2023-02-03T05:55:20.109Z,159.82
2023-02-03T05:57:48.305Z,151.27
2023-02-03T06:00:16.833Z,141.82
2023-02-03T06:02:44.991Z,147.43
2023-02-03T06:05:13.533Z,149.30
2023-02-03T06:07:41.633Z,166.57
2023-02-03T06:10:12.532Z,174.40
2023-02-03T06:12:40.723Z,173.90
2023-02-03T06:15:09.430Z,159.75
2023-02-03T06:17:37.767Z,158.32
2023-02-03T06:20:08.545Z,167.93
2023-02-03T06:22:36.735Z,165.85
2023-02-03T06:25:05.619Z,152.30
2023-02-03T06:27:33.937Z,167.30
2023-02-03T06:30:02.073Z,163.63
2023-02-03T06:32:33.093Z,164.70
2023-02-03T06:35:01.272Z,155.43
2023-02-03T06:37:29.456Z,154.88
2023-02-03T06:39:57.553Z,163.10
2023-02-03T06:42:25.705Z,154.07
2023-02-03T06:44:55.083Z,159.00
2023-02-03T06:47:23.217Z,160.00
2023-02-03T06:49:52.350Z,154.68
2023-02-03T06:52:20.553Z,166.05
2023-02-03T06:54:48.684Z,159.57
2023-02-03T06:57:16.903Z,165.20
2023-02-03T06:59:45.014Z,169.85
2023-02-03T07:02:13.328Z,170.02
2023-02-03T07:04:43.651Z,171.95
2023-02-03T07:07:12.978Z,184.52
2023-02-03T07:09:44.541Z,177.52
2023-02-03T07:12:12.965Z,184.30
2023-02-03T07:14:42.368Z,170.13
2023-02-03T07:17:10.525Z,176.15
2023-02-03T07:19:38.621Z,193.30
2023-02-03T07:22:07.575Z,182.77
2023-02-03T07:24:36.233Z,175.13
2023-02-03T07:27:04.733Z,182.05
2023-02-03T07:29:32.903Z,187.85
2023-02-03T07:32:02.800Z,180.75
2023-02-03T07:34:31.102Z,188.07
2023-02-03T07:36:59.306Z,181.18
2023-02-03T07:39:27.526Z,191.35
2023-02-03T07:41:55.756Z,179.02
2023-02-03T07:44:25.087Z,179.25
2023-02-03T07:46:53.300Z,177.20
2023-02-03T07:49:21.450Z,181.65
2023-02-03T07:51:49.636Z,163.52
2023-02-03T07:54:17.818Z,197.63
2023-02-03T07:56:46.018Z,169.30
2023-02-03T07:59:14.156Z,174.93
2023-02-03T08:01:42.312Z,173.88
2023-02-03T08:04:12.936Z,175.20
2023-02-03T08:06:41.142Z,181.05
2023-02-03T08:09:09.571Z,176.35
2023-02-03T08:11:37.774Z,173.43
2023-02-03T08:14:06.008Z,175.82
2023-02-03T08:16:34.291Z,174.40
2023-02-03T08:19:02.516Z,179.25
2023-02-03T08:21:31.040Z,180.23
2023-02-03T08:23:59.091Z,184.02
2023-02-03T08:26:27.272Z,183.80
2023-02-03T08:28:55.529Z,174.50
2023-02-03T08:31:24.785Z,182.93
2023-02-03T08:33:53.016Z,188.45
2023-02-03T08:36:21.200Z,173.23
2023-02-03T08:38:52.462Z,175.55
2023-02-03T08:41:20.859Z,176.68
2023-02-03T08:43:49.445Z,187.57
2023-02-03T08:46:17.654Z,167.88
2023-02-03T08:48:45.891Z,178.48
2023-02-03T08:51:17.014Z,186.40
2023-02-03T08:53:45.461Z,187.50
2023-02-03T08:56:14.236Z,178.98
2023-02-03T08:58:42.477Z,191.88
2023-02-03T09:01:13.036Z,198.13
2023-02-03T09:03:42.132Z,191.75
2023-02-03T09:06:16.716Z,188.02
2023-02-03T09:08:46.302Z,186.38
2023-02-03T09:11:17.160Z,191.73
2023-02-03T09:13:46.134Z,192.15
2023-02-03T09:16:17.382Z,198.93
2023-02-03T09:18:46.496Z,195.07
2023-02-03T09:21:34.734Z,186.07
2023-02-03T09:26:37.171Z,180.80
2023-02-03T09:29:05.342Z,192.65
2023-02-03T09:31:33.729Z,181.27
2023-02-03T09:34:01.889Z,179.10
2023-02-03T09:36:30.131Z,179.30
2023-02-03T09:38:58.609Z,177.50
2023-02-03T09:41:42.697Z,182.70
2023-02-03T09:44:34.988Z,184.30
2023-02-03T09:47:28.803Z,186.85
2023-02-03T09:52:39.392Z,183.50
2023-02-03T09:55:20.846Z,173.50
2023-02-03T09:58:03.167Z,180.10
2023-02-03T10:00:39.968Z,198.52
2023-02-03T10:03:28.497Z,187.82
2023-02-03T10:06:19.144Z,180.70
2023-02-03T10:09:24.575Z,188.50
2023-02-03T10:12:18.275Z,183.05
2023-02-03T10:15:15.564Z,190.70
2023-02-03T10:18:04.784Z,191.05
2023-02-03T10:20:39.725Z,186.63
2023-02-03T10:23:13.652Z,195.07
2023-02-03T10:25:57.180Z,189.30
2023-02-03T10:28:30.979Z,199.75
2023-02-03T10:33:31.123Z,186.65
2023-02-03T10:36:20.912Z,185.45
2023-02-03T10:39:07.935Z,188.57
2023-02-03T10:41:36.468Z,198.43
2023-02-03T10:44:10.779Z,190.27
2023-02-03T10:46:42.342Z,194.52
2023-02-03T10:49:15.501Z,204.50
2023-02-03T10:51:57.049Z,199.50
2023-02-03T10:54:34.533Z,207.27
2023-02-03T10:57:12.357Z,202.45
2023-02-03T10:59:46.387Z,202.13
2023-02-03T11:02:25.928Z,197.65
2023-02-03T11:05:24.934Z,211.65
2023-02-03T11:07:56.278Z,202.20
2023-02-03T11:10:29.254Z,225.95
2023-02-03T11:15:55.715Z,205.88
2023-02-03T11:18:38.666Z,195.63
2023-02-03T11:21:21.151Z,207.68
2023-02-03T11:24:17.076Z,202.48
2023-02-03T11:27:07.019Z,201.10
2023-02-03T11:29:44.365Z,209.60
2023-02-03T11:32:33.412Z,200.00
2023-02-03T11:35:15.385Z,199.63
2023-02-03T11:37:46.401Z,201.68
2023-02-03T11:40:20.158Z,199.75
2023-02-03T11:42:53.005Z,200.63
2023-02-03T11:45:29.714Z,201.77
2023-02-03T11:48:06.384Z,202.45
2023-02-03T11:50:43.769Z,208.23
2023-02-03T11:53:11.981Z,196.32
2023-02-03T11:56:11.802Z,195.38
2023-02-03T11:58:58.751Z,209.32
2023-02-03T12:01:51.256Z,210.02
2023-02-03T12:04:43.853Z,203.10
2023-02-03T12:07:36.375Z,199.48
2023-02-03T12:10:28.935Z,182.57
2023-02-03T12:13:26.244Z,193.35
2023-02-03T12:16:21.815Z,190.00
2023-02-03T12:19:07.717Z,197.05
2023-02-03T12:21:49.991Z,186.90
2023-02-03T12:24:25.010Z,193.70
2023-02-03T12:27:04.863Z,186.48
2023-02-03T12:29:45.653Z,187.48
2023-02-03T12:32:36.856Z,191.15
2023-02-03T12:35:15.895Z,196.40
2023-02-03T12:38:17.085Z,189.68
2023-02-03T12:40:54.302Z,194.57
2023-02-03T12:43:39.922Z,194.80
2023-02-03T12:46:16.268Z,190.48
2023-02-03T12:49:12.509Z,203.10
2023-02-03T12:51:57.366Z,199.75
2023-02-03T12:54:46.834Z,200.85
2023-02-03T12:57:25.427Z,199.35
2023-02-03T13:00:10.709Z,203.32
2023-02-03T13:03:01.133Z,199.52
2023-02-03T13:05:43.926Z,201.63
2023-02-03T13:08:19.338Z,193.23
2023-02-03T13:10:55.118Z,195.88
2023-02-03T13:13:36.739Z,195.38
2023-02-03T13:16:09.861Z,199.38
2023-02-03T13:18:42.595Z,192.98
2023-02-03T13:21:13.891Z,198.18
2023-02-03T13:23:45.504Z,192.88
2023-02-03T13:26:32.252Z,199.80
2023-02-03T13:29:29.108Z,191.30
2023-02-03T13:32:06.321Z,194.35
2023-02-03T13:35:24.836Z,192.23
2023-02-03T13:38:13.318Z,188.07
2023-02-03T13:41:18.271Z,185.75
2023-02-03T13:43:49.991Z,190.20
2023-02-03T13:46:32.219Z,175.00
2023-02-03T13:49:03.157Z,181.10
2023-02-03T13:51:39.388Z,181.35
2023-02-03T13:54:16.508Z,181.23
2023-02-03T13:57:05.159Z,186.45
2023-02-03T13:59:43.022Z,179.77
2023-02-03T14:02:27.266Z,180.18
2023-02-03T14:04:58.163Z,185.32
2023-02-03T14:07:34.635Z,175.15
2023-02-03T14:10:16.627Z,184.10
2023-02-03T14:12:51.228Z,181.75
2023-02-03T14:15:21.814Z,180.00
2023-02-03T14:17:53.097Z,182.40
2023-02-03T14:20:27.575Z,182.52
2023-02-03T14:22:55.763Z,177.52
2023-02-03T14:25:27.067Z,179.88
2023-02-03T14:28:05.705Z,192.02
2023-02-03T14:30:54.302Z,185.63
2023-02-03T14:33:42.489Z,182.50
2023-02-03T14:36:28.082Z,189.70
2023-02-03T14:39:01.889Z,188.52
2023-02-03T14:42:04.629Z,186.80
2023-02-03T14:45:08.616Z,185.70
2023-02-03T14:47:42.800Z,196.88
2023-02-03T14:50:55.472Z,189.05
2023-02-03T14:53:29.690Z,188.40
2023-02-03T14:56:16.171Z,190.05
2023-02-03T14:58:50.895Z,192.05
2023-02-03T15:01:25.249Z,197.38
2023-02-03T15:04:11.856Z,188.35
2023-02-03T15:06:47.286Z,188.07
2023-02-03T15:09:43.127Z,204.25
2023-02-03T15:12:23.273Z,189.63
2023-02-03T15:14:51.751Z,190.30
2023-02-03T15:17:26.502Z,191.52
2023-02-03T15:19:55.057Z,198.73
2023-02-03T15:22:25.174Z,197.45
2023-02-03T15:25:04.663Z,194.48
2023-02-03T15:27:33.732Z,191.10
2023-02-03T15:30:24.541Z,191.02
2023-02-03T15:33:09.913Z,203.23
2023-02-03T15:35:40.750Z,194.82
2023-02-03T15:38:30.162Z,221.90
2023-02-03T15:40:59.334Z,211.88
2023-02-03T15:43:39.528Z,213.63
2023-02-03T15:46:19.724Z,221.82
2023-02-03T15:48:58.263Z,206.65
2023-02-03T15:51:35.412Z,215.35
2023-02-03T15:54:11.816Z,214.82
2023-02-03T15:56:44.788Z,209.05
2023-02-03T15:59:24.417Z,221.80
2023-02-03T16:01:55.887Z,210.88
2023-02-03T16:04:26.417Z,224.15
2023-02-03T16:06:57.029Z,226.55
2023-02-03T16:09:42.670Z,222.98
2023-02-03T16:12:18.700Z,214.68
2023-02-03T16:14:46.973Z,225.25
2023-02-03T16:17:29.350Z,230.38
2023-02-03T16:20:12.658Z,239.77
2023-02-03T16:22:47.240Z,235.65
2023-02-03T16:25:25.638Z,241.25
2023-02-03T16:28:20.094Z,245.52
2023-02-03T16:31:42.372Z,230.93
2023-02-03T16:34:36.024Z,250.73
2023-02-03T16:37:39.604Z,253.10
2023-02-03T16:40:26.607Z,252.40
2023-02-03T16:43:13.276Z,242.40
2023-02-03T16:46:00.754Z,242.13
2023-02-03T16:48:47.502Z,235.95
2023-02-03T16:51:17.326Z,250.88
2023-02-03T16:53:48.352Z,240.10
2023-02-03T16:56:18.655Z,241.15
2023-02-03T16:58:47.092Z,239.18
2023-02-03T17:01:15.533Z,238.18
2023-02-03T17:03:44.488Z,233.23
2023-02-03T17:06:15.192Z,229.70
2023-02-03T17:08:46.377Z,240.30
2023-02-03T17:11:20.369Z,245.35
2023-02-03T17:13:49.797Z,241.80
2023-02-03T17:16:23.839Z,234.05
2023-02-03T17:18:52.261Z,235.43
2023-02-03T17:21:25.414Z,229.10
2023-02-03T17:23:54.215Z,240.25
2023-02-03T17:26:22.493Z,239.82
2023-02-03T17:28:52.543Z,236.65
2023-02-03T17:31:21.534Z,235.75
2023-02-03T17:33:52.938Z,241.13
2023-02-03T17:36:22.705Z,252.50
2023-02-03T17:55:34.795Z,260.15
2023-02-03T17:58:03.974Z,243.30
2023-02-03T18:00:32.475Z,259.50
2023-02-03T18:03:00.946Z,268.55
2023-02-03T18:05:29.677Z,251.43
2023-02-03T18:08:00.937Z,256.40
2023-02-03T18:10:34.213Z,262.05
2023-02-03T18:13:02.723Z,255.73
2023-02-03T18:15:30.980Z,265.40
2023-02-03T18:17:59.149Z,261.75
2023-02-03T18:20:27.656Z,260.45
2023-02-03T18:22:55.918Z,258.50
2023-02-03T18:25:24.063Z,254.35
2023-02-03T18:27:54.874Z,260.10
2023-02-03T18:30:23.085Z,253.23
2023-02-03T18:32:52.696Z,280.35
2023-02-03T18:35:21.018Z,264.08
2023-02-03T18:37:52.248Z,262.88
2023-02-03T18:40:20.518Z,260.38
2023-02-03T18:42:49.083Z,263.40
2023-02-03T18:45:17.301Z,249.88
2023-02-03T18:47:45.479Z,255.93
2023-02-03T18:50:13.694Z,261.27
2023-02-03T18:52:41.934Z,265.05
2023-02-03T18:55:10.206Z,258.38
2023-02-03T18:57:38.850Z,238.20
2023-02-03T19:00:08.159Z,250.02
2023-02-03T19:02:36.522Z,266.83
2023-02-03T19:05:05.503Z,251.50
2023-02-03T19:07:33.867Z,248.63
2023-02-03T19:10:04.932Z,259.30
2023-02-03T19:12:33.227Z,266.02
2023-02-03T19:15:01.442Z,248.13
2023-02-03T19:17:29.705Z,269.33
2023-02-03T19:19:57.977Z,286.92
2023-02-03T19:22:26.171Z,278.75
2023-02-03T19:24:55.864Z,278.85
2023-02-03T19:27:24.556Z,280.58
2023-02-03T19:29:52.785Z,289.50
2023-02-03T19:32:21.128Z,269.63
2023-02-03T19:34:49.394Z,271.63
2023-02-03T19:37:17.665Z,278.42
2023-02-03T19:39:50.326Z,268.38
2023-02-03T19:42:18.722Z,266.92
2023-02-03T19:44:47.125Z,279.65
2023-02-03T19:47:18.197Z,264.48
2023-02-03T19:49:46.409Z,276.38
2023-02-03T19:52:17.387Z,268.88
2023-02-03T19:54:45.654Z,261.50
2023-02-03T19:57:13.811Z,259.35
2023-02-03T19:59:42.126Z,274.20
2023-02-03T20:02:14.344Z,268.08
2023-02-03T20:04:44.263Z,270.60
2023-02-03T20:07:13.880Z,268.90
2023-02-03T20:09:42.064Z,265.80
2023-02-03T20:12:11.136Z,264.35
2023-02-03T20:14:39.357Z,249.52
2023-02-03T20:17:07.858Z,268.80
2023-02-03T20:19:36.279Z,270.13
2023-02-03T20:22:04.678Z,265.73
2023-02-03T20:24:33.279Z,270.50
2023-02-03T20:27:01.891Z,260.55
2023-02-03T20:29:30.128Z,253.18
2023-02-03T20:31:58.785Z,262.00
2023-02-03T20:34:30.003Z,266.05
2023-02-03T20:37:00.799Z,274.50
2023-02-03T20:39:29.153Z,263.85
2023-02-03T20:41:57.369Z,277.23
2023-02-03T20:44:25.602Z,278.80
2023-02-03T20:46:55.873Z,267.77
2023-02-03T20:49:24.201Z,276.98
2023-02-03T20:51:52.426Z,275.98
2023-02-03T20:54:22.097Z,272.60
2023-02-03T20:56:50.300Z,270.23
2023-02-03T20:59:22.213Z,265.52
2023-02-03T21:01:50.816Z,272.63
2023-02-03T21:04:38.679Z,266.15
2023-02-03T21:07:18.099Z,263.73
2023-02-03T21:09:46.305Z,262.02
2023-02-03T21:12:15.069Z,265.67
2023-02-03T21:14:45.565Z,272.92
2023-02-03T21:17:26.233Z,267.38
2023-02-03T21:19:55.207Z,267.08
2023-02-03T21:22:26.529Z,263.88
2023-02-03T21:24:59.993Z,254.63
2023-02-03T21:27:34.098Z,237.35
2023-02-03T21:30:21.196Z,211.60
2023-02-03T21:32:49.328Z,211.88
2023-02-03T21:35:35.093Z,216.38
2023-02-03T21:38:25.451Z,206.38
2023-02-03T21:40:53.646Z,214.93
2023-02-03T21:43:24.692Z,206.40
2023-02-03T21:45:53.000Z,203.68
2023-02-03T21:48:39.810Z,200.38
2023-02-03T21:51:24.013Z,203.63
2023-02-03T21:53:55.570Z,194.48
2023-02-03T21:56:26.948Z,197.98
2023-02-03T21:58:58.922Z,190.73
2023-02-03T22:01:35.517Z,180.57
2023-02-03T22:04:06.575Z,197.82
2023-02-03T22:06:52.220Z,185.38
2023-02-03T22:09:27.695Z,189.57
2023-02-03T22:11:56.160Z,187.77
2023-02-03T22:14:24.388Z,190.80
2023-02-03T22:16:52.654Z,190.02
2023-02-03T22:19:21.210Z,203.82
2023-02-03T22:22:47.836Z,204.60
2023-02-03T22:26:14.944Z,228.23
2023-02-03T22:29:41.872Z,241.90
2023-02-03T22:33:08.730Z,238.60
2023-02-03T22:36:35.413Z,239.07
2023-02-03T22:40:03.545Z,194.52
2023-02-03T22:43:31.234Z,187.65
2023-02-03T22:46:58.227Z,179.13
2023-02-03T22:50:35.059Z,177.00
2023-02-03T22:54:03.359Z,198.55
2023-02-03T22:57:30.065Z,189.73
2023-02-03T23:00:57.163Z,227.43
2023-02-03T23:04:26.817Z,188.60
2023-02-03T23:07:53.922Z,197.32
2023-02-03T23:11:22.230Z,197.90
2023-02-03T23:14:51.644Z,233.32
2023-02-03T23:18:18.340Z,237.02
2023-02-03T23:21:45.074Z,231.32
2023-02-03T23:25:12.803Z,197.80
2023-02-03T23:28:40.358Z,173.38
2023-02-03T23:32:07.776Z,162.55
2023-02-03T23:35:46.698Z,175.18
2023-02-03T23:39:14.170Z,174.23
2023-02-03T23:42:40.824Z,192.13
2023-02-03T23:46:08.003Z,199.27
2023-02-03T23:49:34.704Z,197.18
2023-02-03T23:53:01.392Z,202.13
2023-02-03T23:56:28.448Z,203.63
2023-02-03T23:59:55.155Z,189.35
